Hlavní strana
METAR-TAF:

METAR-TAF

Letiště :

Port of Spain, Trinidad, Trinidad a Tobago

zeměpisná šířka: 10-37N, zeměpisná délka: 061-21W, výška: 12 m

Aktuální stav počasí

Zpráva byla vytvořena před 51 minutami, v 13:00 UTC
Východojihovýchodní vítr 12 kt
Teplota 30°C
Vlhkost vzduchu 66%
Tlak 1015 hPa
Viditelnost 10 km a více
Oblačno až skoro zataženo ve výšce 2000 ft

METAR: TTPP 261300Z 11012KT 9999 BKN020 30/23 Q1015 NOSIG

Čas: 09:51 (13:51 UTC)

Předpověď počasí

Zpráva byla vytvořena před 3 hodinami a 51 minutami, v 10:00 UTC
Předpověď platná od 26 v 12 UTC do 27 v 12 UTC
Východní vítr 12 kt s nárazy do 25 kt
Viditelnost 10 km a více
Polojasno ve výšce 2500 ft
Dočasný
od 26 v 14 UTC do 26 v 20 UTC
Viditelnost: 5000 m
Oblačno až skoro zataženo ve výšce 1500 ft
Polojasno ve výšce 3500 ft
dešťové přeháňky
Změna
od 26 v 23 UTC do 27 v 01 UTC
Východní vítr 5 kt
Skoro jasno ve výšce 1800 ft

TAF: TTPP 261000Z 2612/2712 10012G25KT 9999 SCT025 TEMPO 2614/2620 5000 SHRA BKN015 SCT035 BECMG 2623/2701 09005KT FEW018

Stav a předpovědi počasí z více než 4 000 letišť (zprávy METAR a TAF).

Červené a žluté tečky na mapě představují dostupné meteorologické stanice.

Když kurzor umístíte na tečku, zobrazí se název stanice.

Pak kliknutím zobrazíte stav a předpověď počasí.

Chcete-li změnit mapu, kliknutím na zelené tlačítko se znaménkem +mapu přiblížíte, kliknutím na zelené tlačítko se znaménkem – mapu oddálíte a kliknutím na zelené šipky přejdete na sousední mapy.


METAR-TAF: